0N0 weather

Roosterville Airport
Liberty, Missouri, United States

Public forecast

Using degrees Fahrenheit for public forecast. Weather courtesy of forecast.io.

Closest aviation weather report (METAR) to Roosterville Airport

Closest report is Midwest National Air Center Airport, 6.6 nm (12.3 km) ENE. Retrieved 2020/07/04 21:35 UTC (0 seconds ago):

KGPH 042135Z AUTO 08008KT 10SM SCT035 SCT044 29/20 A2997 RMK AO2 LTG DSNT S AND SW

Closest aviation forecast (TAF) to Roosterville Airport

Closest forecast is Charles B. Wheeler Downtown Airport, 12.3 nm (22.7 km) SW. Retrieved 2020/07/04 18:22 UTC (3 hours ago):

TAF KMKC 041720Z 0418/0518 07009KT P6SM VCSH SCT018 BKN040 TEMPO 0418/0421 4SM -RA BR BKN015 FM042200 08008KT P6SM VCSH SCT030 BKN050 FM050300 09004KT P6SM SCT035